createdAt,value
2019-06-01T00:01:49.270Z,17.80
2019-06-01T00:04:15.899Z,17.80
2019-06-01T00:06:42.835Z,17.70
2019-06-01T00:09:09.418Z,17.80
2019-06-01T00:11:35.819Z,17.80
2019-06-01T00:14:04.048Z,17.80
2019-06-01T00:16:30.678Z,17.90
2019-06-01T00:18:56.988Z,17.80
2019-06-01T00:21:23.371Z,17.90
2019-06-01T00:23:50.050Z,17.90
2019-06-01T00:26:16.506Z,17.70
2019-06-01T00:28:43.738Z,17.60
2019-06-01T00:31:10.237Z,17.60
2019-06-01T00:33:38.344Z,17.60
2019-06-01T00:36:04.688Z,17.50
2019-06-01T00:38:31.339Z,17.50
2019-06-01T00:40:57.715Z,17.60
2019-06-01T00:43:24.021Z,17.40
2019-06-01T00:45:50.840Z,17.40
2019-06-01T00:48:17.319Z,17.30
2019-06-01T00:50:44.820Z,17.30
2019-06-01T00:53:11.384Z,17.30
2019-06-01T00:55:37.916Z,17.30
2019-06-01T00:58:04.339Z,17.20
2019-06-01T01:00:43.153Z,17.30
2019-06-01T01:02:59.135Z,17.20
2019-06-01T01:05:25.511Z,17.30
2019-06-01T01:07:53.412Z,17.20
2019-06-01T01:10:20.066Z,17.10
2019-06-01T01:13:03.315Z,17.20
2019-06-01T01:15:29.788Z,17.20
2019-06-01T01:17:56.262Z,17.30
2019-06-01T01:20:24.563Z,17.20
2019-06-01T01:22:52.262Z,17.10
2019-06-01T01:25:18.649Z,17.10
2019-06-01T01:27:45.043Z,17.10
2019-06-01T01:30:11.634Z,17.00
2019-06-01T01:32:38.060Z,16.90
2019-06-01T01:35:06.378Z,17.00
2019-06-01T01:37:32.777Z,16.90
2019-06-01T01:39:59.165Z,17.10
2019-06-01T01:42:26.542Z,17.00
2019-06-01T01:44:52.951Z,16.90
2019-06-01T01:47:19.251Z,17.00
2019-06-01T01:49:45.599Z,17.00
2019-06-01T01:52:11.984Z,17.00
2019-06-01T01:54:38.522Z,16.90
2019-06-01T01:57:07.192Z,16.80
2019-06-01T01:59:33.443Z,16.80
2019-06-01T02:01:59.825Z,16.80
2019-06-01T02:04:26.472Z,16.80
2019-06-01T02:06:53.847Z,16.80
2019-06-01T02:09:20.379Z,16.80
2019-06-01T02:11:46.814Z,16.80
2019-06-01T02:14:13.311Z,16.70
2019-06-01T02:16:39.688Z,16.60
2019-06-01T02:19:06.248Z,16.60
2019-06-01T02:21:32.547Z,16.60
2019-06-01T02:23:59.110Z,16.60
2019-06-01T02:26:26.678Z,16.60
2019-06-01T02:28:53.196Z,16.60
2019-06-01T02:31:19.740Z,16.70
2019-06-01T02:33:46.166Z,16.80
2019-06-01T02:36:13.519Z,16.90
2019-06-01T02:38:39.951Z,16.80
2019-06-01T02:41:06.383Z,16.90
2019-06-01T02:43:32.776Z,16.80
2019-06-01T02:46:00.446Z,16.70
2019-06-01T02:48:28.346Z,16.80
2019-06-01T02:50:55.773Z,16.80
2019-06-01T02:53:22.281Z,16.80
2019-06-01T02:55:48.682Z,16.80
2019-06-01T02:58:14.970Z,16.80
2019-06-01T03:00:48.308Z,16.80
2019-06-01T03:03:14.968Z,16.70
2019-06-01T03:05:42.087Z,16.80
2019-06-01T03:08:08.569Z,16.70
2019-06-01T03:10:35.905Z,16.80
2019-06-01T03:13:02.267Z,16.60
2019-06-01T03:15:28.638Z,16.50
2019-06-01T03:17:55.076Z,16.60
2019-06-01T03:20:21.472Z,16.60
2019-06-01T03:22:50.382Z,16.60
2019-06-01T03:25:16.800Z,16.60
2019-06-01T03:27:43.206Z,16.60
2019-06-01T03:30:14.471Z,16.60
2019-06-01T03:32:39.351Z,16.60
2019-06-01T03:35:06.755Z,16.60
2019-06-01T03:37:35.011Z,16.50
2019-06-01T03:40:01.458Z,16.50
2019-06-01T03:42:27.831Z,16.40
2019-06-01T03:44:54.222Z,16.40
2019-06-01T03:47:20.537Z,16.30
2019-06-01T03:49:46.827Z,16.40
2019-06-01T03:52:13.145Z,16.30
2019-06-01T03:54:39.640Z,16.20
2019-06-01T03:57:07.170Z,16.10
2019-06-01T03:59:35.405Z,16.10
2019-06-01T04:02:02.894Z,16.00
2019-06-01T04:04:29.390Z,16.10
2019-06-01T04:06:55.754Z,16.00
2019-06-01T04:09:22.233Z,16.00
2019-06-01T04:11:48.620Z,15.90
2019-06-01T04:14:15.204Z,16.00
2019-06-01T04:16:43.196Z,15.90
2019-06-01T04:19:10.053Z,16.00
2019-06-01T04:21:36.493Z,16.00
2019-06-01T04:24:03.952Z,15.90
2019-06-01T04:26:30.606Z,15.80
2019-06-01T04:28:57.126Z,15.90
2019-06-01T04:31:23.649Z,15.90
2019-06-01T04:33:50.026Z,15.80
2019-06-01T04:36:16.320Z,15.80
2019-06-01T04:38:44.115Z,15.80
2019-06-01T04:41:11.881Z,15.90
2019-06-01T04:43:38.435Z,16.00
2019-06-01T04:46:06.042Z,15.90
2019-06-01T04:48:32.563Z,15.90
2019-06-01T04:50:58.961Z,15.90
2019-06-01T04:53:25.419Z,15.90
2019-06-01T04:55:51.792Z,15.90
2019-06-01T04:58:18.178Z,16.00
2019-06-01T05:00:46.407Z,16.10
2019-06-01T05:03:13.584Z,16.00
2019-06-01T05:05:40.075Z,16.10
2019-06-01T05:08:07.164Z,16.10
2019-06-01T05:10:33.691Z,16.10
2019-06-01T05:13:00.149Z,16.20
2019-06-01T05:15:26.568Z,16.30
2019-06-01T05:17:52.847Z,16.40
2019-06-01T05:20:19.373Z,16.40
2019-06-01T05:22:46.730Z,16.50
2019-06-01T05:25:13.663Z,16.60
2019-06-01T05:27:41.352Z,16.60
2019-06-01T05:30:09.338Z,16.70
2019-06-01T05:32:35.901Z,16.80
2019-06-01T05:35:03.506Z,16.80
2019-06-01T05:37:31.037Z,16.90
2019-06-01T05:39:58.536Z,16.90
2019-06-01T05:42:25.090Z,17.00
2019-06-01T05:44:52.525Z,17.20
2019-06-01T05:47:21.011Z,17.30
2019-06-01T05:49:47.399Z,17.40
2019-06-01T05:52:14.472Z,17.70
2019-06-01T05:54:41.043Z,17.90
2019-06-01T05:57:07.345Z,18.30
2019-06-01T05:59:33.801Z,18.50
2019-06-01T06:02:00.148Z,18.80
2019-06-01T06:04:26.570Z,19.00
2019-06-01T06:06:53.883Z,19.20
2019-06-01T06:09:20.303Z,19.40
2019-06-01T06:11:46.671Z,19.60
2019-06-01T06:14:13.358Z,19.80
2019-06-01T06:16:39.729Z,20.00
2019-06-01T06:19:06.041Z,20.20
2019-06-01T06:21:32.452Z,20.40
2019-06-01T06:23:58.878Z,20.60
2019-06-01T06:26:25.307Z,20.70
2019-06-01T06:28:51.839Z,20.80
2019-06-01T06:31:19.137Z,20.90
2019-06-01T06:33:55.891Z,21.10
2019-06-01T06:36:15.616Z,21.20
2019-06-01T06:38:42.285Z,21.30
2019-06-01T06:41:09.776Z,21.40
2019-06-01T06:43:36.218Z,21.60
2019-06-01T06:46:02.952Z,21.70
2019-06-01T06:48:29.578Z,21.70
2019-06-01T06:50:56.024Z,21.90
2019-06-01T06:53:32.746Z,22.10
2019-06-01T06:55:50.913Z,22.20
2019-06-01T06:58:18.850Z,22.30
2019-06-01T07:00:45.497Z,22.30
2019-06-01T07:03:12.006Z,22.50
2019-06-01T07:05:38.710Z,22.60
2019-06-01T07:08:05.226Z,22.60
2019-06-01T07:10:31.924Z,22.70
2019-06-01T07:12:58.478Z,22.80
2019-06-01T07:15:25.545Z,22.90
2019-06-01T07:17:52.030Z,23.00
2019-06-01T07:20:19.439Z,23.10
2019-06-01T07:22:46.012Z,23.20
2019-06-01T07:25:12.503Z,23.30
2019-06-01T07:27:38.846Z,23.30
2019-06-01T07:30:05.646Z,23.30
2019-06-01T07:32:32.883Z,23.30
2019-06-01T07:35:01.188Z,23.40
2019-06-01T07:37:28.570Z,23.40
2019-06-01T07:39:55.070Z,23.60
2019-06-01T07:42:24.491Z,23.70
2019-06-01T07:44:50.842Z,23.60
2019-06-01T07:47:18.186Z,23.60
2019-06-01T07:49:44.581Z,23.60
2019-06-01T07:52:13.441Z,23.60
2019-06-01T07:54:39.543Z,23.80
2019-06-01T07:57:06.847Z,23.90
2019-06-01T07:59:33.336Z,24.10
2019-06-01T08:01:59.919Z,24.20
2019-06-01T08:04:28.118Z,24.40
2019-06-01T08:06:54.712Z,24.40
2019-06-01T08:09:22.309Z,24.40
2019-06-01T08:11:49.530Z,24.40
2019-06-01T08:14:15.912Z,24.30
2019-06-01T08:16:45.378Z,24.40
2019-06-01T08:19:12.964Z,24.30
2019-06-01T08:21:39.449Z,24.30
2019-06-01T08:24:05.988Z,24.20
2019-06-01T08:26:32.765Z,24.20
2019-06-01T08:28:59.465Z,24.30
2019-06-01T08:31:26.638Z,24.40
2019-06-01T08:33:53.072Z,24.40
2019-06-01T08:36:19.483Z,24.40
2019-06-01T08:38:47.794Z,24.50
2019-06-01T08:41:14.311Z,24.50
2019-06-01T08:43:42.771Z,24.60
2019-06-01T08:46:09.298Z,24.70
2019-06-01T08:48:35.728Z,24.80
2019-06-01T08:51:02.244Z,24.90
2019-06-01T08:53:29.981Z,24.90
2019-06-01T08:55:56.466Z,25.00
2019-06-01T08:58:24.099Z,25.10
2019-06-01T09:00:50.682Z,25.30
2019-06-01T09:03:17.165Z,25.30
2019-06-01T09:05:43.540Z,25.40
2019-06-01T09:08:09.944Z,25.50
2019-06-01T09:10:36.299Z,25.50
2019-06-01T09:13:02.732Z,25.60
2019-06-01T09:15:29.716Z,25.70
2019-06-01T09:17:56.191Z,25.70
2019-06-01T09:20:22.577Z,25.80
2019-06-01T09:22:48.955Z,25.60
2019-06-01T09:25:16.604Z,25.60
2019-06-01T09:27:43.108Z,25.50
2019-06-01T09:30:09.623Z,25.40
2019-06-01T09:32:36.476Z,25.30
2019-06-01T09:35:04.259Z,25.20
2019-06-01T09:37:30.642Z,25.30
2019-06-01T09:39:56.959Z,25.30
2019-06-01T09:42:23.253Z,25.30
2019-06-01T09:44:52.376Z,25.40
2019-06-01T09:47:19.759Z,25.30
2019-06-01T09:49:46.046Z,25.40
2019-06-01T09:52:12.845Z,25.50
2019-06-01T09:54:39.617Z,25.40
2019-06-01T09:57:06.676Z,25.50
2019-06-01T09:59:33.993Z,25.60
2019-06-01T10:02:00.533Z,25.60
2019-06-01T10:04:28.167Z,25.70
2019-06-01T10:06:54.753Z,25.70
2019-06-01T10:09:21.268Z,25.80
2019-06-01T10:11:48.682Z,25.80
2019-06-01T10:14:15.072Z,25.80
2019-06-01T10:16:43.026Z,25.70
2019-06-01T10:19:09.587Z,25.70
2019-06-01T10:21:36.198Z,25.70
2019-06-01T10:24:02.690Z,25.70
2019-06-01T10:26:29.228Z,25.80
2019-06-01T10:28:55.759Z,25.80
2019-06-01T10:31:23.993Z,25.80
2019-06-01T10:33:51.612Z,25.80
2019-06-01T10:36:20.973Z,25.80
2019-06-01T10:38:46.884Z,25.80
2019-06-01T10:41:13.505Z,25.80
2019-06-01T10:43:40.025Z,25.80
2019-06-01T10:46:08.286Z,25.80
2019-06-01T10:48:36.014Z,25.90
2019-06-01T10:51:02.574Z,25.90
2019-06-01T10:53:29.871Z,25.90
2019-06-01T10:55:56.231Z,25.90
2019-06-01T10:58:22.914Z,25.90
2019-06-01T11:00:51.238Z,25.90
2019-06-01T11:03:18.962Z,25.90
2019-06-01T11:05:45.479Z,25.90
2019-06-01T11:08:12.546Z,25.90
2019-06-01T11:10:39.109Z,25.90
2019-06-01T11:13:05.585Z,25.90
2019-06-01T11:15:33.000Z,25.90
2019-06-01T11:17:59.620Z,25.90
2019-06-01T11:20:26.118Z,25.80
2019-06-01T11:22:52.627Z,25.80
2019-06-01T11:25:18.947Z,25.80
2019-06-01T11:27:45.374Z,25.80
2019-06-01T11:30:11.766Z,25.80
2019-06-01T11:32:39.526Z,25.70
2019-06-01T11:35:06.749Z,25.70
2019-06-01T11:37:34.209Z,25.70
2019-06-01T11:40:00.752Z,25.70
2019-06-01T11:42:27.992Z,25.60
2019-06-01T11:44:54.538Z,25.60
2019-06-01T11:47:22.881Z,25.50
2019-06-01T11:49:49.377Z,25.50
2019-06-01T11:52:15.715Z,25.40
2019-06-01T11:54:43.275Z,25.30
2019-06-01T11:57:09.750Z,25.20
2019-06-01T11:59:37.270Z,25.30
2019-06-01T12:02:03.824Z,25.30
2019-06-01T12:04:30.465Z,25.30
2019-06-01T12:07:13.708Z,25.30
2019-06-01T12:09:25.455Z,25.30
2019-06-01T12:11:51.974Z,25.30
2019-06-01T12:14:18.450Z,25.30
2019-06-01T12:16:44.948Z,25.20
2019-06-01T12:19:11.429Z,25.30
2019-06-01T12:21:38.897Z,25.30
2019-06-01T12:24:05.381Z,25.30
2019-06-01T12:26:31.758Z,25.40
2019-06-01T12:28:58.197Z,25.30
2019-06-01T12:31:24.613Z,25.40
2019-06-01T12:33:51.012Z,25.40
2019-06-01T12:36:17.419Z,25.40
2019-06-01T12:38:53.380Z,25.30
2019-06-01T12:41:20.942Z,25.30
2019-06-01T12:43:49.138Z,25.30
2019-06-01T12:46:15.626Z,25.30
2019-06-01T12:48:43.895Z,25.20
2019-06-01T12:51:12.273Z,25.30
2019-06-01T12:53:38.608Z,25.30
2019-06-01T12:56:05.058Z,25.40
2019-06-01T12:58:31.424Z,25.30
2019-06-01T13:01:02.590Z,25.40
2019-06-01T13:03:29.010Z,25.40
2019-06-01T13:05:55.295Z,25.30
2019-06-01T13:08:22.738Z,25.20
2019-06-01T13:10:49.969Z,25.20
2019-06-01T13:13:16.517Z,25.10
2019-06-01T13:15:43.243Z,25.10
2019-06-01T13:18:09.731Z,25.10
2019-06-01T13:20:36.145Z,25.10
2019-06-01T13:23:02.576Z,25.10
2019-06-01T13:25:29.024Z,25.10
2019-06-01T13:27:55.408Z,25.10
2019-06-01T13:30:21.828Z,25.20
2019-06-01T13:32:48.645Z,25.20
2019-06-01T13:35:15.044Z,25.10
2019-06-01T13:37:42.437Z,25.10
2019-06-01T13:40:09.051Z,25.20
2019-06-01T13:42:35.979Z,25.20
2019-06-01T13:45:05.796Z,25.20
2019-06-01T13:47:33.140Z,25.10
2019-06-01T13:49:59.756Z,25.20
2019-06-01T13:52:27.517Z,25.20
2019-06-01T13:54:54.709Z,25.20
2019-06-01T13:57:21.384Z,25.20
2019-06-01T13:59:48.768Z,25.20
2019-06-01T14:02:15.391Z,25.20
2019-06-01T14:04:41.906Z,25.30
2019-06-01T14:07:08.566Z,25.20
2019-06-01T14:09:36.119Z,25.30
2019-06-01T14:12:02.857Z,25.30
2019-06-01T14:14:29.596Z,25.30
2019-06-01T14:16:55.928Z,25.30
2019-06-01T14:19:22.583Z,25.30
2019-06-01T14:21:50.233Z,25.30
2019-06-01T14:24:17.377Z,25.20
2019-06-01T14:26:43.956Z,25.20
2019-06-01T14:29:10.450Z,25.10
2019-06-01T14:31:37.697Z,25.10
2019-06-01T14:34:05.636Z,25.00
2019-06-01T14:36:32.138Z,25.00
2019-06-01T14:38:58.897Z,25.00
2019-06-01T14:41:26.405Z,25.00
2019-06-01T14:43:53.674Z,25.00
2019-06-01T14:46:20.142Z,24.90
2019-06-01T14:48:47.401Z,25.00
2019-06-01T14:51:15.071Z,24.90
2019-06-01T14:53:41.579Z,24.90
2019-06-01T14:56:07.968Z,24.90
2019-06-01T14:58:34.325Z,25.00
2019-06-01T15:01:00.688Z,25.10
2019-06-01T15:03:27.150Z,25.10
2019-06-01T15:05:54.392Z,25.10
2019-06-01T15:08:20.917Z,25.20
2019-06-01T15:10:48.741Z,25.20
2019-06-01T15:13:15.195Z,25.20
2019-06-01T15:15:42.588Z,25.20
2019-06-01T15:18:09.074Z,25.30
2019-06-01T15:20:35.365Z,25.20
2019-06-01T15:23:03.536Z,25.30
2019-06-01T15:25:29.984Z,25.30
2019-06-01T15:27:56.929Z,25.30
2019-06-01T15:30:23.435Z,25.20
2019-06-01T15:32:50.014Z,25.20
2019-06-01T15:35:16.516Z,25.20
2019-06-01T15:37:42.954Z,25.20
2019-06-01T15:40:09.558Z,25.10
2019-06-01T15:42:35.863Z,25.10
2019-06-01T15:45:07.748Z,25.10
2019-06-01T15:47:34.352Z,25.20
2019-06-01T15:50:00.734Z,25.20
2019-06-01T15:52:28.162Z,25.20
2019-06-01T15:54:54.463Z,25.20
2019-06-01T15:57:20.848Z,25.20
2019-06-01T15:59:47.361Z,25.20
2019-06-01T16:02:13.763Z,25.20
2019-06-01T16:04:41.168Z,25.20
2019-06-01T16:07:07.701Z,25.20
2019-06-01T16:09:42.675Z,25.20
2019-06-01T16:12:03.641Z,25.10
2019-06-01T16:14:30.314Z,25.00
2019-06-01T16:16:57.836Z,25.00
2019-06-01T16:19:24.798Z,25.00
2019-06-01T16:21:51.423Z,25.00
2019-06-01T16:24:17.820Z,25.00
2019-06-01T16:26:44.210Z,25.10
2019-06-01T16:29:10.751Z,25.10
2019-06-01T16:31:37.266Z,25.10
2019-06-01T16:34:05.118Z,25.00
2019-06-01T16:36:31.735Z,25.10
2019-06-01T16:39:02.837Z,25.10
2019-06-01T16:41:26.338Z,25.10
2019-06-01T16:43:52.760Z,25.10
2019-06-01T16:46:19.279Z,25.10
2019-06-01T16:48:45.671Z,25.00
2019-06-01T16:51:12.181Z,25.00
2019-06-01T16:53:39.763Z,25.00
2019-06-01T16:56:06.394Z,25.00
2019-06-01T16:58:32.841Z,25.00
2019-06-01T17:01:00.450Z,24.90
2019-06-01T17:03:26.979Z,24.90
2019-06-01T17:05:56.669Z,24.90
2019-06-01T17:08:23.243Z,24.80
2019-06-01T17:10:49.675Z,24.80
2019-06-01T17:13:16.246Z,24.80
2019-06-01T17:15:42.740Z,24.80
2019-06-01T17:18:10.432Z,24.80
2019-06-01T17:20:45.873Z,24.80
2019-06-01T17:23:25.847Z,24.80
2019-06-01T17:25:40.766Z,24.80
2019-06-01T17:28:07.271Z,24.70
2019-06-01T17:30:33.842Z,24.70
2019-06-01T17:33:00.380Z,24.70
2019-06-01T17:35:26.838Z,24.70
2019-06-01T17:37:53.399Z,24.70
2019-06-01T17:40:33.615Z,24.70
2019-06-01T17:42:48.178Z,24.70
2019-06-01T17:45:14.542Z,24.70
2019-06-01T17:47:41.095Z,24.60
2019-06-01T17:50:07.683Z,24.60
2019-06-01T17:52:34.071Z,24.60
2019-06-01T17:55:03.102Z,24.60
2019-06-01T17:57:30.839Z,24.50
2019-06-01T17:59:57.357Z,24.50
2019-06-01T18:02:23.958Z,24.50
2019-06-01T18:04:50.495Z,24.50
2019-06-01T18:07:17.003Z,24.50
2019-06-01T18:09:43.648Z,24.50
2019-06-01T18:12:10.251Z,24.40
2019-06-01T18:14:36.629Z,24.40
2019-06-01T18:17:04.036Z,24.40
2019-06-01T18:19:31.618Z,24.30
2019-06-01T18:21:58.135Z,24.30
2019-06-01T18:24:24.530Z,24.30
2019-06-01T18:26:51.281Z,24.20
2019-06-01T18:29:17.607Z,24.20
2019-06-01T18:31:44.019Z,24.20
2019-06-01T18:34:11.680Z,24.10
2019-06-01T18:36:38.127Z,24.10
2019-06-01T18:39:05.347Z,24.10
2019-06-01T18:41:33.662Z,24.10
2019-06-01T18:44:00.061Z,24.10
2019-06-01T18:46:26.442Z,24.00
2019-06-01T18:48:52.955Z,24.00
2019-06-01T18:51:19.331Z,24.00
2019-06-01T18:53:45.623Z,24.00
2019-06-01T18:56:14.290Z,23.90
2019-06-01T18:58:40.947Z,23.90
2019-06-01T19:01:08.430Z,23.90
2019-06-01T19:03:35.010Z,23.80
2019-06-01T19:06:01.506Z,23.80
2019-06-01T19:08:27.903Z,23.70
2019-06-01T19:10:54.386Z,23.80
2019-06-01T19:13:20.894Z,23.70
2019-06-01T19:15:47.249Z,23.70
2019-06-01T19:18:14.807Z,23.60
2019-06-01T19:20:41.343Z,23.60
2019-06-01T19:23:08.688Z,23.60
2019-06-01T19:25:35.263Z,23.50
2019-06-01T19:28:01.776Z,23.50
2019-06-01T19:30:34.136Z,23.40
2019-06-01T19:33:01.631Z,23.30
2019-06-01T19:35:28.017Z,23.30
2019-06-01T19:37:55.428Z,23.30
2019-06-01T19:40:25.516Z,23.30
2019-06-01T19:42:51.883Z,23.30
2019-06-01T19:45:27.528Z,23.20
2019-06-01T19:47:46.743Z,23.20
2019-06-01T19:50:14.217Z,23.20
2019-06-01T19:52:40.786Z,23.20
2019-06-01T19:55:08.779Z,23.10
2019-06-01T19:57:36.546Z,23.00
2019-06-01T20:00:06.760Z,22.90
2019-06-01T20:02:34.610Z,22.90
2019-06-01T20:05:00.986Z,22.90
2019-06-01T20:07:27.447Z,22.90
2019-06-01T20:09:53.842Z,22.90
2019-06-01T20:12:20.619Z,22.80
2019-06-01T20:14:47.218Z,22.80
2019-06-01T20:17:13.687Z,22.60
2019-06-01T20:19:39.967Z,22.60
2019-06-01T20:22:07.459Z,22.60
2019-06-01T20:24:33.946Z,22.50
2019-06-01T20:27:00.378Z,22.40
2019-06-01T20:29:26.827Z,22.30
2019-06-01T20:31:54.357Z,22.40
2019-06-01T20:34:22.040Z,22.40
2019-06-01T20:36:48.691Z,22.30
2019-06-01T20:39:16.268Z,22.20
2019-06-01T20:41:42.936Z,22.20
2019-06-01T20:44:10.347Z,22.20
2019-06-01T20:46:36.797Z,22.20
2019-06-01T20:49:03.396Z,22.10
2019-06-01T20:51:29.954Z,22.10
2019-06-01T20:53:56.425Z,22.10
2019-06-01T20:56:24.042Z,22.10
2019-06-01T20:58:51.492Z,22.00
2019-06-01T21:01:17.920Z,22.00
2019-06-01T21:03:44.300Z,21.90
2019-06-01T21:06:11.002Z,21.90
2019-06-01T21:08:37.282Z,21.80
2019-06-01T21:11:03.577Z,21.60
2019-06-01T21:13:30.095Z,21.60
2019-06-01T21:15:56.568Z,21.60
2019-06-01T21:18:23.057Z,21.50
2019-06-01T21:20:50.280Z,21.40
2019-06-01T21:23:16.795Z,21.40
2019-06-01T21:25:43.302Z,21.30
2019-06-01T21:28:14.159Z,21.30
2019-06-01T21:30:39.741Z,21.30
2019-06-01T21:33:06.267Z,21.30
2019-06-01T21:35:32.718Z,21.30
2019-06-01T21:37:59.251Z,21.40
2019-06-01T21:40:25.794Z,21.30
2019-06-01T21:43:03.197Z,21.30
2019-06-01T21:45:21.682Z,21.30
2019-06-01T21:47:48.227Z,21.30
2019-06-01T21:50:16.532Z,21.10
2019-06-01T21:52:44.675Z,21.00
2019-06-01T21:55:11.062Z,20.90
2019-06-01T21:57:37.522Z,20.90
2019-06-01T22:00:16.819Z,20.90
2019-06-01T22:02:45.167Z,20.80
2019-06-01T22:05:12.098Z,20.80
2019-06-01T22:07:38.600Z,20.70
2019-06-01T22:10:06.118Z,20.70
2019-06-01T22:12:32.408Z,20.70
2019-06-01T22:14:58.801Z,20.70
2019-06-01T22:17:25.835Z,20.70
2019-06-01T22:19:52.434Z,20.70
2019-06-01T22:22:19.605Z,20.60
2019-06-01T22:24:46.033Z,20.60
2019-06-01T22:27:12.298Z,20.70
2019-06-01T22:29:38.586Z,20.60
2019-06-01T22:32:05.054Z,20.50
2019-06-01T22:34:31.455Z,20.50
2019-06-01T22:36:57.818Z,20.50
2019-06-01T22:39:24.798Z,20.50
2019-06-01T22:41:51.302Z,20.50
2019-06-01T22:44:17.780Z,20.60
2019-06-01T22:46:44.207Z,20.50
2019-06-01T22:49:10.583Z,20.50
2019-06-01T22:51:36.886Z,20.50
2019-06-01T22:54:04.204Z,20.40
2019-06-01T22:56:31.726Z,20.40
2019-06-01T22:58:58.150Z,20.30
2019-06-01T23:01:26.913Z,20.30
2019-06-01T23:03:53.379Z,20.30
2019-06-01T23:06:20.847Z,20.30
2019-06-01T23:08:47.422Z,20.30
2019-06-01T23:11:13.830Z,20.30
2019-06-01T23:13:52.619Z,20.30
2019-06-01T23:16:09.600Z,20.40
2019-06-01T23:18:36.408Z,20.30
2019-06-01T23:21:03.208Z,20.30
2019-06-01T23:23:30.199Z,20.30
2019-06-01T23:25:56.774Z,20.30
2019-06-01T23:28:24.232Z,20.30
2019-06-01T23:30:50.823Z,20.30
2019-06-01T23:33:17.233Z,20.40
2019-06-01T23:35:43.634Z,20.40
2019-06-01T23:38:10.099Z,20.40
2019-06-01T23:40:36.442Z,20.50
2019-06-01T23:43:02.730Z,20.40
2019-06-01T23:45:29.183Z,20.40
2019-06-01T23:47:55.575Z,20.40
2019-06-01T23:50:23.034Z,20.40
2019-06-01T23:52:49.590Z,20.30
2019-06-01T23:55:15.873Z,20.20
2019-06-01T23:57:42.284Z,20.30
